sensor_id;sensor_type;location;lat;lon;timestamp;P1;durP1;ratioP1;P2;durP2;ratioP2
71639;SDS011;60912;48.968;10.124;2022-10-17T00:00:21;6.33;;;1.97;;
71639;SDS011;60912;48.968;10.124;2022-10-17T00:02:46;15.65;;;2.67;;
71639;SDS011;60912;48.968;10.124;2022-10-17T00:05:11;9.87;;;3.40;;
71639;SDS011;60912;48.968;10.124;2022-10-17T00:07:37;11.10;;;3.13;;
71639;SDS011;60912;48.968;10.124;2022-10-17T00:10:03;8.10;;;3.37;;
71639;SDS011;60912;48.968;10.124;2022-10-17T00:12:30;11.15;;;3.10;;
71639;SDS011;60912;48.968;10.124;2022-10-17T00:14:55;7.73;;;2.50;;
71639;SDS011;60912;48.968;10.124;2022-10-17T00:17:20;12.67;;;2.90;;
71639;SDS011;60912;48.968;10.124;2022-10-17T00:19:46;11.05;;;2.53;;
71639;SDS011;60912;48.968;10.124;2022-10-17T00:22:11;11.83;;;2.90;;
71639;SDS011;60912;48.968;10.124;2022-10-17T00:24:37;6.53;;;2.30;;
71639;SDS011;60912;48.968;10.124;2022-10-17T00:27:02;4.38;;;2.20;;
71639;SDS011;60912;48.968;10.124;2022-10-17T00:29:28;9.20;;;2.33;;
71639;SDS011;60912;48.968;10.124;2022-10-17T00:31:54;8.10;;;2.15;;
71639;SDS011;60912;48.968;10.124;2022-10-17T00:34:21;5.90;;;2.13;;
71639;SDS011;60912;48.968;10.124;2022-10-17T00:36:46;7.28;;;2.13;;
71639;SDS011;60912;48.968;10.124;2022-10-17T00:39:12;5.57;;;2.20;;
71639;SDS011;60912;48.968;10.124;2022-10-17T00:41:37;13.87;;;2.90;;
71639;SDS011;60912;48.968;10.124;2022-10-17T00:46:46;10.63;;;2.37;;
71639;SDS011;60912;48.968;10.124;2022-10-17T00:49:11;5.03;;;2.00;;
71639;SDS011;60912;48.968;10.124;2022-10-17T00:54:06;9.27;;;1.83;;
71639;SDS011;60912;48.968;10.124;2022-10-17T00:56:32;4.53;;;1.60;;
71639;SDS011;60912;48.968;10.124;2022-10-17T00:58:58;9.13;;;1.90;;
71639;SDS011;60912;48.968;10.124;2022-10-17T01:01:24;4.57;;;1.90;;
71639;SDS011;60912;48.968;10.124;2022-10-17T01:03:50;3.37;;;1.50;;
71639;SDS011;60912;48.968;10.124;2022-10-17T01:06:15;6.40;;;1.90;;
71639;SDS011;60912;48.968;10.124;2022-10-17T01:08:41;7.57;;;2.03;;
71639;SDS011;60912;48.968;10.124;2022-10-17T01:14:01;8.75;;;1.90;;
71639;SDS011;60912;48.968;10.124;2022-10-17T01:16:43;4.45;;;1.67;;
71639;SDS011;60912;48.968;10.124;2022-10-17T01:20:22;6.83;;;1.60;;
71639;SDS011;60912;48.968;10.124;2022-10-17T01:33:20;5.30;;;1.70;;
71639;SDS011;60912;48.968;10.124;2022-10-17T01:35:55;10.18;;;1.80;;
71639;SDS011;60912;48.968;10.124;2022-10-17T01:38:29;2.97;;;1.50;;
71639;SDS011;60912;48.968;10.124;2022-10-17T01:41:09;4.45;;;1.70;;
71639;SDS011;60912;48.968;10.124;2022-10-17T01:46:37;5.90;;;1.60;;
71639;SDS011;60912;48.968;10.124;2022-10-17T01:49:06;8.77;;;1.88;;
71639;SDS011;60912;48.968;10.124;2022-10-17T01:51:38;5.88;;;1.80;;
71639;SDS011;60912;48.968;10.124;2022-10-17T01:56:45;6.15;;;2.03;;
71639;SDS011;60912;48.968;10.124;2022-10-17T01:59:18;7.13;;;2.03;;
71639;SDS011;60912;48.968;10.124;2022-10-17T02:01:47;6.05;;;1.70;;
71639;SDS011;60912;48.968;10.124;2022-10-17T02:04:15;7.40;;;1.50;;
71639;SDS011;60912;48.968;10.124;2022-10-17T02:06:40;8.03;;;1.90;;
71639;SDS011;60912;48.968;10.124;2022-10-17T02:12:14;7.75;;;1.50;;
71639;SDS011;60912;48.968;10.124;2022-10-17T02:26:11;5.25;;;1.70;;
71639;SDS011;60912;48.968;10.124;2022-10-17T02:31:30;6.32;;;1.70;;
71639;SDS011;60912;48.968;10.124;2022-10-17T02:34:03;5.22;;;1.75;;
71639;SDS011;60912;48.968;10.124;2022-10-17T02:36:38;13.13;;;2.00;;
71639;SDS011;60912;48.968;10.124;2022-10-17T02:39:06;13.32;;;2.03;;
71639;SDS011;60912;48.968;10.124;2022-10-17T02:41:33;7.10;;;1.85;;
71639;SDS011;60912;48.968;10.124;2022-10-17T02:44:02;7.68;;;2.05;;
71639;SDS011;60912;48.968;10.124;2022-10-17T02:46:30;6.63;;;1.63;;
71639;SDS011;60912;48.968;10.124;2022-10-17T02:48:59;12.43;;;2.33;;
71639;SDS011;60912;48.968;10.124;2022-10-17T02:51:40;6.50;;;1.60;;
71639;SDS011;60912;48.968;10.124;2022-10-17T02:56:53;9.07;;;2.30;;
71639;SDS011;60912;48.968;10.124;2022-10-17T02:59:23;8.27;;;1.55;;
71639;SDS011;60912;48.968;10.124;2022-10-17T03:01:51;7.00;;;1.40;;
71639;SDS011;60912;48.968;10.124;2022-10-17T03:04:17;9.32;;;1.85;;
71639;SDS011;60912;48.968;10.124;2022-10-17T03:06:43;6.03;;;1.80;;
71639;SDS011;60912;48.968;10.124;2022-10-17T03:09:10;6.27;;;1.73;;
71639;SDS011;60912;48.968;10.124;2022-10-17T03:11:36;4.90;;;1.70;;
71639;SDS011;60912;48.968;10.124;2022-10-17T03:14:01;6.10;;;1.73;;
71639;SDS011;60912;48.968;10.124;2022-10-17T03:16:27;4.93;;;1.55;;
71639;SDS011;60912;48.968;10.124;2022-10-17T03:18:52;6.00;;;2.00;;
71639;SDS011;60912;48.968;10.124;2022-10-17T03:21:17;10.60;;;2.00;;
71639;SDS011;60912;48.968;10.124;2022-10-17T03:23:43;6.00;;;1.47;;
71639;SDS011;60912;48.968;10.124;2022-10-17T03:26:08;5.27;;;1.53;;
71639;SDS011;60912;48.968;10.124;2022-10-17T03:28:33;7.43;;;1.48;;
71639;SDS011;60912;48.968;10.124;2022-10-17T03:30:59;8.73;;;1.50;;
71639;SDS011;60912;48.968;10.124;2022-10-17T03:33:30;6.63;;;1.83;;
71639;SDS011;60912;48.968;10.124;2022-10-17T03:35:56;6.60;;;1.47;;
71639;SDS011;60912;48.968;10.124;2022-10-17T03:38:21;5.37;;;1.70;;
71639;SDS011;60912;48.968;10.124;2022-10-17T03:40:53;7.77;;;1.40;;
71639;SDS011;60912;48.968;10.124;2022-10-17T03:43:19;5.47;;;1.30;;
71639;SDS011;60912;48.968;10.124;2022-10-17T03:45:44;7.17;;;1.57;;
71639;SDS011;60912;48.968;10.124;2022-10-17T03:48:09;6.00;;;1.70;;
71639;SDS011;60912;48.968;10.124;2022-10-17T03:50:35;11.80;;;1.70;;
71639;SDS011;60912;48.968;10.124;2022-10-17T03:53:00;6.93;;;1.60;;
71639;SDS011;60912;48.968;10.124;2022-10-17T03:55:25;4.63;;;1.60;;
71639;SDS011;60912;48.968;10.124;2022-10-17T03:57:51;9.25;;;1.30;;
71639;SDS011;60912;48.968;10.124;2022-10-17T04:00:16;4.67;;;1.40;;
71639;SDS011;60912;48.968;10.124;2022-10-17T04:02:41;6.00;;;1.50;;
71639;SDS011;60912;48.968;10.124;2022-10-17T04:05:08;3.38;;;1.60;;
71639;SDS011;60912;48.968;10.124;2022-10-17T04:07:34;11.23;;;1.73;;
71639;SDS011;60912;48.968;10.124;2022-10-17T04:10:01;8.95;;;1.90;;
71639;SDS011;60912;48.968;10.124;2022-10-17T04:12:26;7.60;;;1.77;;
71639;SDS011;60912;48.968;10.124;2022-10-17T04:14:52;10.50;;;1.80;;
71639;SDS011;60912;48.968;10.124;2022-10-17T04:17:17;4.33;;;1.60;;
71639;SDS011;60912;48.968;10.124;2022-10-17T04:19:42;9.30;;;1.60;;
71639;SDS011;60912;48.968;10.124;2022-10-17T04:22:08;9.73;;;1.63;;
71639;SDS011;60912;48.968;10.124;2022-10-17T04:24:33;5.63;;;1.50;;
71639;SDS011;60912;48.968;10.124;2022-10-17T04:26:58;4.73;;;1.50;;
71639;SDS011;60912;48.968;10.124;2022-10-17T04:29:24;6.00;;;1.40;;
71639;SDS011;60912;48.968;10.124;2022-10-17T04:31:50;6.18;;;1.42;;
71639;SDS011;60912;48.968;10.124;2022-10-17T04:34:16;4.88;;;1.55;;
71639;SDS011;60912;48.968;10.124;2022-10-17T04:36:41;4.87;;;1.60;;
71639;SDS011;60912;48.968;10.124;2022-10-17T04:39:07;6.27;;;1.70;;
71639;SDS011;60912;48.968;10.124;2022-10-17T04:41:32;6.35;;;1.77;;
71639;SDS011;60912;48.968;10.124;2022-10-17T04:43:58;5.93;;;1.77;;
71639;SDS011;60912;48.968;10.124;2022-10-17T04:46:23;11.47;;;2.00;;
71639;SDS011;60912;48.968;10.124;2022-10-17T04:48:48;8.30;;;1.80;;
71639;SDS011;60912;48.968;10.124;2022-10-17T04:51:15;6.45;;;1.83;;
71639;SDS011;60912;48.968;10.124;2022-10-17T04:53:42;5.20;;;1.50;;
71639;SDS011;60912;48.968;10.124;2022-10-17T04:58:35;7.18;;;1.30;;
71639;SDS011;60912;48.968;10.124;2022-10-17T05:01:05;5.28;;;1.20;;
71639;SDS011;60912;48.968;10.124;2022-10-17T05:03:32;5.68;;;1.60;;
71639;SDS011;60912;48.968;10.124;2022-10-17T05:05:58;11.90;;;2.60;;
71639;SDS011;60912;48.968;10.124;2022-10-17T05:08:23;7.50;;;1.90;;
71639;SDS011;60912;48.968;10.124;2022-10-17T05:10:48;6.90;;;1.88;;
71639;SDS011;60912;48.968;10.124;2022-10-17T05:13:13;5.57;;;1.80;;
71639;SDS011;60912;48.968;10.124;2022-10-17T05:15:39;9.83;;;1.77;;
71639;SDS011;60912;48.968;10.124;2022-10-17T05:18:04;4.13;;;1.80;;
71639;SDS011;60912;48.968;10.124;2022-10-17T05:20:31;8.90;;;2.15;;
71639;SDS011;60912;48.968;10.124;2022-10-17T05:23:00;6.85;;;2.40;;
71639;SDS011;60912;48.968;10.124;2022-10-17T05:25:26;7.87;;;2.30;;
71639;SDS011;60912;48.968;10.124;2022-10-17T05:27:51;7.55;;;2.45;;
71639;SDS011;60912;48.968;10.124;2022-10-17T05:30:17;10.97;;;2.17;;
71639;SDS011;60912;48.968;10.124;2022-10-17T05:32:42;8.88;;;2.00;;
71639;SDS011;60912;48.968;10.124;2022-10-17T05:35:08;10.50;;;1.60;;
71639;SDS011;60912;48.968;10.124;2022-10-17T05:37:33;9.33;;;1.80;;
71639;SDS011;60912;48.968;10.124;2022-10-17T05:39:59;11.50;;;1.97;;
71639;SDS011;60912;48.968;10.124;2022-10-17T05:42:24;6.70;;;2.10;;
71639;SDS011;60912;48.968;10.124;2022-10-17T05:44:49;4.63;;;1.43;;
71639;SDS011;60912;48.968;10.124;2022-10-17T05:47:15;5.70;;;1.53;;
71639;SDS011;60912;48.968;10.124;2022-10-17T05:49:40;6.20;;;1.50;;
71639;SDS011;60912;48.968;10.124;2022-10-17T05:52:06;5.63;;;1.60;;
71639;SDS011;60912;48.968;10.124;2022-10-17T05:54:31;5.73;;;1.50;;
71639;SDS011;60912;48.968;10.124;2022-10-17T05:56:57;7.27;;;1.30;;
71639;SDS011;60912;48.968;10.124;2022-10-17T05:59:25;6.18;;;1.50;;
71639;SDS011;60912;48.968;10.124;2022-10-17T06:01:52;6.83;;;1.43;;
71639;SDS011;60912;48.968;10.124;2022-10-17T06:04:17;5.32;;;1.50;;
71639;SDS011;60912;48.968;10.124;2022-10-17T06:06:43;7.63;;;1.50;;
71639;SDS011;60912;48.968;10.124;2022-10-17T06:09:08;5.43;;;1.47;;
71639;SDS011;60912;48.968;10.124;2022-10-17T06:11:34;6.30;;;1.52;;
71639;SDS011;60912;48.968;10.124;2022-10-17T06:14:00;4.85;;;1.70;;
71639;SDS011;60912;48.968;10.124;2022-10-17T06:16:25;6.80;;;2.40;;
71639;SDS011;60912;48.968;10.124;2022-10-17T06:18:51;9.30;;;2.77;;
71639;SDS011;60912;48.968;10.124;2022-10-17T06:21:18;8.93;;;2.20;;
71639;SDS011;60912;48.968;10.124;2022-10-17T06:23:47;7.93;;;2.60;;
71639;SDS011;60912;48.968;10.124;2022-10-17T06:26:13;9.25;;;2.20;;
71639;SDS011;60912;48.968;10.124;2022-10-17T06:28:38;13.27;;;2.20;;
71639;SDS011;60912;48.968;10.124;2022-10-17T06:31:08;5.32;;;1.98;;
71639;SDS011;60912;48.968;10.124;2022-10-17T06:33:35;10.30;;;2.20;;
71639;SDS011;60912;48.968;10.124;2022-10-17T06:36:01;9.10;;;1.92;;
71639;SDS011;60912;48.968;10.124;2022-10-17T06:38:27;11.05;;;1.83;;
71639;SDS011;60912;48.968;10.124;2022-10-17T06:40:53;6.00;;;1.80;;
71639;SDS011;60912;48.968;10.124;2022-10-17T06:43:18;6.30;;;1.93;;
71639;SDS011;60912;48.968;10.124;2022-10-17T06:45:44;6.72;;;1.90;;
71639;SDS011;60912;48.968;10.124;2022-10-17T06:48:11;6.15;;;2.20;;
71639;SDS011;60912;48.968;10.124;2022-10-17T06:50:37;6.10;;;2.30;;
71639;SDS011;60912;48.968;10.124;2022-10-17T06:53:02;12.83;;;3.10;;
71639;SDS011;60912;48.968;10.124;2022-10-17T06:55:29;6.95;;;2.30;;
71639;SDS011;60912;48.968;10.124;2022-10-17T06:57:55;7.17;;;2.00;;
71639;SDS011;60912;48.968;10.124;2022-10-17T07:00:21;4.72;;;2.00;;
71639;SDS011;60912;48.968;10.124;2022-10-17T07:02:47;6.45;;;2.20;;
71639;SDS011;60912;48.968;10.124;2022-10-17T07:05:13;9.07;;;2.70;;
71639;SDS011;60912;48.968;10.124;2022-10-17T07:07:38;7.03;;;2.03;;
71639;SDS011;60912;48.968;10.124;2022-10-17T07:10:04;5.67;;;2.20;;
71639;SDS011;60912;48.968;10.124;2022-10-17T07:12:32;9.30;;;2.40;;
71639;SDS011;60912;48.968;10.124;2022-10-17T07:14:59;6.37;;;2.10;;
71639;SDS011;60912;48.968;10.124;2022-10-17T07:17:25;5.88;;;2.10;;
71639;SDS011;60912;48.968;10.124;2022-10-17T07:19:50;6.77;;;2.17;;
71639;SDS011;60912;48.968;10.124;2022-10-17T07:22:15;6.38;;;2.10;;
71639;SDS011;60912;48.968;10.124;2022-10-17T07:24:41;5.63;;;2.50;;
71639;SDS011;60912;48.968;10.124;2022-10-17T07:27:06;7.43;;;2.40;;
71639;SDS011;60912;48.968;10.124;2022-10-17T07:29:31;6.73;;;2.40;;
71639;SDS011;60912;48.968;10.124;2022-10-17T07:31:57;9.00;;;2.67;;
71639;SDS011;60912;48.968;10.124;2022-10-17T07:34:22;6.93;;;2.42;;
71639;SDS011;60912;48.968;10.124;2022-10-17T07:36:51;4.97;;;2.17;;
71639;SDS011;60912;48.968;10.124;2022-10-17T07:39:17;8.85;;;2.53;;
71639;SDS011;60912;48.968;10.124;2022-10-17T07:41:42;7.70;;;2.43;;
71639;SDS011;60912;48.968;10.124;2022-10-17T07:44:08;7.20;;;2.77;;
71639;SDS011;60912;48.968;10.124;2022-10-17T07:46:33;4.63;;;2.70;;
71639;SDS011;60912;48.968;10.124;2022-10-17T07:48:59;7.18;;;2.55;;
71639;SDS011;60912;48.968;10.124;2022-10-17T07:51:24;10.70;;;2.67;;
71639;SDS011;60912;48.968;10.124;2022-10-17T07:53:50;9.17;;;2.90;;
71639;SDS011;60912;48.968;10.124;2022-10-17T07:56:16;9.52;;;2.90;;
71639;SDS011;60912;48.968;10.124;2022-10-17T07:58:41;9.50;;;2.77;;
71639;SDS011;60912;48.968;10.124;2022-10-17T08:01:08;7.43;;;2.53;;
71639;SDS011;60912;48.968;10.124;2022-10-17T08:03:38;11.05;;;2.80;;
71639;SDS011;60912;48.968;10.124;2022-10-17T08:06:05;9.77;;;2.90;;
71639;SDS011;60912;48.968;10.124;2022-10-17T08:08:30;11.97;;;2.70;;
71639;SDS011;60912;48.968;10.124;2022-10-17T08:11:00;6.97;;;2.50;;
71639;SDS011;60912;48.968;10.124;2022-10-17T08:13:27;7.57;;;2.78;;
71639;SDS011;60912;48.968;10.124;2022-10-17T08:15:52;6.67;;;2.73;;
71639;SDS011;60912;48.968;10.124;2022-10-17T08:18:18;5.95;;;2.60;;
71639;SDS011;60912;48.968;10.124;2022-10-17T08:20:43;9.53;;;2.90;;
71639;SDS011;60912;48.968;10.124;2022-10-17T08:23:08;8.87;;;2.87;;
71639;SDS011;60912;48.968;10.124;2022-10-17T08:25:36;7.37;;;2.90;;
71639;SDS011;60912;48.968;10.124;2022-10-17T08:28:02;7.70;;;3.05;;
71639;SDS011;60912;48.968;10.124;2022-10-17T08:30:28;5.67;;;2.87;;
71639;SDS011;60912;48.968;10.124;2022-10-17T08:32:54;8.65;;;3.03;;
71639;SDS011;60912;48.968;10.124;2022-10-17T08:35:20;5.47;;;2.42;;
71639;SDS011;60912;48.968;10.124;2022-10-17T08:37:46;6.90;;;2.70;;
71639;SDS011;60912;48.968;10.124;2022-10-17T08:40:14;11.35;;;2.53;;
71639;SDS011;60912;48.968;10.124;2022-10-17T08:42:57;7.65;;;2.55;;
71639;SDS011;60912;48.968;10.124;2022-10-17T08:48:12;5.83;;;2.33;;
71639;SDS011;60912;48.968;10.124;2022-10-17T08:50:46;6.38;;;2.35;;
71639;SDS011;60912;48.968;10.124;2022-10-17T08:53:20;6.68;;;2.78;;
71639;SDS011;60912;48.968;10.124;2022-10-17T08:55:51;8.77;;;2.50;;
71639;SDS011;60912;48.968;10.124;2022-10-17T08:58:28;6.55;;;2.80;;
71639;SDS011;60912;48.968;10.124;2022-10-17T09:03:38;7.07;;;2.67;;
71639;SDS011;60912;48.968;10.124;2022-10-17T09:09:18;6.80;;;2.65;;
71639;SDS011;60912;48.968;10.124;2022-10-17T09:20:26;7.15;;;2.58;;
71639;SDS011;60912;48.968;10.124;2022-10-17T09:22:59;5.05;;;2.25;;
71639;SDS011;60912;48.968;10.124;2022-10-17T09:25:39;6.22;;;2.20;;
71639;SDS011;60912;48.968;10.124;2022-10-17T09:28:24;6.40;;;2.10;;
71639;SDS011;60912;48.968;10.124;2022-10-17T09:31:00;4.55;;;2.20;;
71639;SDS011;60912;48.968;10.124;2022-10-17T09:33:28;5.32;;;2.67;;
71639;SDS011;60912;48.968;10.124;2022-10-17T09:35:58;6.05;;;2.35;;
71639;SDS011;60912;48.968;10.124;2022-10-17T09:38:25;6.63;;;2.33;;
71639;SDS011;60912;48.968;10.124;2022-10-17T09:41:00;7.70;;;2.67;;
71639;SDS011;60912;48.968;10.124;2022-10-17T09:43:26;4.60;;;1.95;;
71639;SDS011;60912;48.968;10.124;2022-10-17T09:46:09;5.57;;;2.35;;
71639;SDS011;60912;48.968;10.124;2022-10-17T09:48:43;4.80;;;1.97;;
71639;SDS011;60912;48.968;10.124;2022-10-17T09:51:12;6.05;;;1.90;;
71639;SDS011;60912;48.968;10.124;2022-10-17T09:53:39;4.75;;;1.90;;
71639;SDS011;60912;48.968;10.124;2022-10-17T09:56:10;5.35;;;1.90;;
71639;SDS011;60912;48.968;10.124;2022-10-17T09:58:39;8.43;;;2.30;;
71639;SDS011;60912;48.968;10.124;2022-10-17T10:01:26;7.83;;;1.70;;
71639;SDS011;60912;48.968;10.124;2022-10-17T10:06:38;6.10;;;2.05;;
71639;SDS011;60912;48.968;10.124;2022-10-17T10:09:04;14.27;;;1.98;;
71639;SDS011;60912;48.968;10.124;2022-10-17T10:14:11;5.60;;;1.40;;
71639;SDS011;60912;48.968;10.124;2022-10-17T10:16:47;5.18;;;1.83;;
71639;SDS011;60912;48.968;10.124;2022-10-17T10:22:01;6.65;;;1.70;;
71639;SDS011;60912;48.968;10.124;2022-10-17T10:25:05;4.60;;;1.63;;
71639;SDS011;60912;48.968;10.124;2022-10-17T10:27:41;5.53;;;1.53;;
71639;SDS011;60912;48.968;10.124;2022-10-17T10:30:22;4.68;;;1.85;;
71639;SDS011;60912;48.968;10.124;2022-10-17T10:32:51;3.72;;;1.52;;
71639;SDS011;60912;48.968;10.124;2022-10-17T10:35:18;3.70;;;1.90;;
71639;SDS011;60912;48.968;10.124;2022-10-17T10:38:01;5.75;;;1.70;;
71639;SDS011;60912;48.968;10.124;2022-10-17T10:46:03;5.50;;;1.83;;
71639;SDS011;60912;48.968;10.124;2022-10-17T10:48:34;6.13;;;1.90;;
71639;SDS011;60912;48.968;10.124;2022-10-17T10:56:27;3.55;;;1.67;;
71639;SDS011;60912;48.968;10.124;2022-10-17T10:59:16;3.97;;;1.90;;
71639;SDS011;60912;48.968;10.124;2022-10-17T11:01:49;5.27;;;1.90;;
71639;SDS011;60912;48.968;10.124;2022-10-17T11:04:39;7.40;;;2.15;;
71639;SDS011;60912;48.968;10.124;2022-10-17T11:09:59;10.00;;;2.63;;
71639;SDS011;60912;48.968;10.124;2022-10-17T11:15:28;4.00;;;1.53;;
71639;SDS011;60912;48.968;10.124;2022-10-17T11:18:13;4.18;;;1.40;;
71639;SDS011;60912;48.968;10.124;2022-10-17T11:23:29;5.07;;;1.60;;
71639;SDS011;60912;48.968;10.124;2022-10-17T11:26:04;6.00;;;1.60;;
71639;SDS011;60912;48.968;10.124;2022-10-17T11:28:35;4.67;;;1.70;;
71639;SDS011;60912;48.968;10.124;2022-10-17T11:31:07;7.85;;;1.88;;
71639;SDS011;60912;48.968;10.124;2022-10-17T11:36:10;4.18;;;1.50;;
71639;SDS011;60912;48.968;10.124;2022-10-17T11:38:40;4.43;;;1.63;;
71639;SDS011;60912;48.968;10.124;2022-10-17T11:41:18;5.07;;;1.70;;
71639;SDS011;60912;48.968;10.124;2022-10-17T11:43:51;3.85;;;1.60;;
71639;SDS011;60912;48.968;10.124;2022-10-17T11:46:21;3.90;;;1.50;;
71639;SDS011;60912;48.968;10.124;2022-10-17T11:51:37;4.40;;;1.67;;
71639;SDS011;60912;48.968;10.124;2022-10-17T11:54:15;5.10;;;1.55;;
71639;SDS011;60912;48.968;10.124;2022-10-17T11:57:01;5.40;;;1.60;;
71639;SDS011;60912;48.968;10.124;2022-10-17T12:02:40;3.72;;;1.40;;
71639;SDS011;60912;48.968;10.124;2022-10-17T12:10:42;3.00;;;1.20;;
71639;SDS011;60912;48.968;10.124;2022-10-17T12:15:52;5.97;;;1.67;;
71639;SDS011;60912;48.968;10.124;2022-10-17T12:18:18;3.42;;;1.33;;
71639;SDS011;60912;48.968;10.124;2022-10-17T12:20:54;4.83;;;1.30;;
71639;SDS011;60912;48.968;10.124;2022-10-17T12:23:29;4.85;;;1.30;;
71639;SDS011;60912;48.968;10.124;2022-10-17T12:25:59;5.13;;;1.30;;
71639;SDS011;60912;48.968;10.124;2022-10-17T12:33:48;3.93;;;1.27;;
71639;SDS011;60912;48.968;10.124;2022-10-17T12:38:41;5.70;;;1.40;;
71639;SDS011;60912;48.968;10.124;2022-10-17T12:41:07;5.33;;;1.20;;
71639;SDS011;60912;48.968;10.124;2022-10-17T12:46:08;7.28;;;1.48;;
71639;SDS011;60912;48.968;10.124;2022-10-17T12:51:18;7.30;;;1.30;;
71639;SDS011;60912;48.968;10.124;2022-10-17T12:56:20;6.13;;;1.38;;
71639;SDS011;60912;48.968;10.124;2022-10-17T12:58:54;4.28;;;1.30;;
71639;SDS011;60912;48.968;10.124;2022-10-17T13:01:26;7.45;;;1.42;;
71639;SDS011;60912;48.968;10.124;2022-10-17T13:03:54;5.93;;;1.40;;
71639;SDS011;60912;48.968;10.124;2022-10-17T13:06:21;4.93;;;1.40;;
71639;SDS011;60912;48.968;10.124;2022-10-17T13:09:05;5.45;;;1.30;;
71639;SDS011;60912;48.968;10.124;2022-10-17T13:11:39;4.55;;;1.40;;
71639;SDS011;60912;48.968;10.124;2022-10-17T13:14:11;7.43;;;1.27;;
71639;SDS011;60912;48.968;10.124;2022-10-17T13:16:38;6.63;;;1.20;;
71639;SDS011;60912;48.968;10.124;2022-10-17T13:19:16;6.20;;;1.25;;
71639;SDS011;60912;48.968;10.124;2022-10-17T13:21:56;5.47;;;1.20;;
71639;SDS011;60912;48.968;10.124;2022-10-17T13:24:33;3.70;;;1.17;;
71639;SDS011;60912;48.968;10.124;2022-10-17T13:27:03;4.65;;;1.30;;
71639;SDS011;60912;48.968;10.124;2022-10-17T13:29:30;3.70;;;1.40;;
71639;SDS011;60912;48.968;10.124;2022-10-17T13:32:00;4.45;;;1.10;;
71639;SDS011;60912;48.968;10.124;2022-10-17T13:34:28;4.32;;;1.73;;
71639;SDS011;60912;48.968;10.124;2022-10-17T13:36:55;7.32;;;1.20;;
71639;SDS011;60912;48.968;10.124;2022-10-17T13:39:23;4.78;;;1.30;;
71639;SDS011;60912;48.968;10.124;2022-10-17T13:41:51;6.87;;;1.20;;
71639;SDS011;60912;48.968;10.124;2022-10-17T13:44:19;9.90;;;1.30;;
71639;SDS011;60912;48.968;10.124;2022-10-17T13:46:47;3.92;;;1.23;;
71639;SDS011;60912;48.968;10.124;2022-10-17T13:49:18;4.47;;;1.05;;
71639;SDS011;60912;48.968;10.124;2022-10-17T13:51:49;4.72;;;1.15;;
71639;SDS011;60912;48.968;10.124;2022-10-17T13:57:05;9.07;;;1.30;;
71639;SDS011;60912;48.968;10.124;2022-10-17T13:59:40;6.43;;;1.50;;
71639;SDS011;60912;48.968;10.124;2022-10-17T14:02:13;5.72;;;1.40;;
71639;SDS011;60912;48.968;10.124;2022-10-17T14:04:44;5.80;;;1.20;;
71639;SDS011;60912;48.968;10.124;2022-10-17T14:07:18;3.00;;;1.20;;
71639;SDS011;60912;48.968;10.124;2022-10-17T14:09:50;7.00;;;1.15;;
71639;SDS011;60912;48.968;10.124;2022-10-17T14:12:16;7.70;;;1.57;;
71639;SDS011;60912;48.968;10.124;2022-10-17T14:14:50;5.00;;;1.40;;
71639;SDS011;60912;48.968;10.124;2022-10-17T14:17:24;7.40;;;1.40;;
71639;SDS011;60912;48.968;10.124;2022-10-17T14:19:53;6.65;;;1.30;;
71639;SDS011;60912;48.968;10.124;2022-10-17T14:24:47;5.40;;;1.20;;
71639;SDS011;60912;48.968;10.124;2022-10-17T14:32:55;7.07;;;1.33;;
71639;SDS011;60912;48.968;10.124;2022-10-17T14:35:22;6.55;;;1.65;;
71639;SDS011;60912;48.968;10.124;2022-10-17T14:37:49;5.15;;;1.48;;
71639;SDS011;60912;48.968;10.124;2022-10-17T14:40:21;5.80;;;1.40;;
71639;SDS011;60912;48.968;10.124;2022-10-17T14:42:48;6.90;;;1.30;;
71639;SDS011;60912;48.968;10.124;2022-10-17T14:45:31;8.13;;;1.50;;
71639;SDS011;60912;48.968;10.124;2022-10-17T14:48:03;4.53;;;1.40;;
71639;SDS011;60912;48.968;10.124;2022-10-17T14:50:33;5.13;;;1.45;;
71639;SDS011;60912;48.968;10.124;2022-10-17T14:55:35;8.03;;;1.50;;
71639;SDS011;60912;48.968;10.124;2022-10-17T14:58:14;11.80;;;1.65;;
71639;SDS011;60912;48.968;10.124;2022-10-17T15:00:51;7.38;;;1.60;;
71639;SDS011;60912;48.968;10.124;2022-10-17T15:03:17;5.50;;;1.50;;
71639;SDS011;60912;48.968;10.124;2022-10-17T15:05:43;10.68;;;1.50;;
71639;SDS011;60912;48.968;10.124;2022-10-17T15:08:13;6.10;;;1.65;;
71639;SDS011;60912;48.968;10.124;2022-10-17T15:10:39;7.05;;;1.73;;
71639;SDS011;60912;48.968;10.124;2022-10-17T15:13:06;5.13;;;1.60;;
71639;SDS011;60912;48.968;10.124;2022-10-17T15:15:33;9.38;;;2.08;;
71639;SDS011;60912;48.968;10.124;2022-10-17T15:17:58;10.05;;;1.60;;
71639;SDS011;60912;48.968;10.124;2022-10-17T15:20:25;7.67;;;1.70;;
71639;SDS011;60912;48.968;10.124;2022-10-17T15:22:53;9.30;;;1.70;;
71639;SDS011;60912;48.968;10.124;2022-10-17T15:25:19;9.38;;;1.60;;
71639;SDS011;60912;48.968;10.124;2022-10-17T15:27:45;10.10;;;2.25;;
71639;SDS011;60912;48.968;10.124;2022-10-17T15:30:15;7.60;;;1.90;;
71639;SDS011;60912;48.968;10.124;2022-10-17T15:32:44;10.07;;;2.97;;
71639;SDS011;60912;48.968;10.124;2022-10-17T15:35:10;15.48;;;4.18;;
71639;SDS011;60912;48.968;10.124;2022-10-17T15:37:35;12.37;;;3.50;;
71639;SDS011;60912;48.968;10.124;2022-10-17T15:40:00;10.70;;;2.30;;
71639;SDS011;60912;48.968;10.124;2022-10-17T15:42:29;5.20;;;2.20;;
71639;SDS011;60912;48.968;10.124;2022-10-17T15:44:55;10.90;;;2.28;;
71639;SDS011;60912;48.968;10.124;2022-10-17T15:47:23;6.30;;;2.40;;
71639;SDS011;60912;48.968;10.124;2022-10-17T15:49:51;6.60;;;2.42;;
71639;SDS011;60912;48.968;10.124;2022-10-17T15:52:16;7.53;;;2.20;;
71639;SDS011;60912;48.968;10.124;2022-10-17T15:54:43;6.75;;;1.83;;
71639;SDS011;60912;48.968;10.124;2022-10-17T15:57:13;6.10;;;2.10;;
71639;SDS011;60912;48.968;10.124;2022-10-17T15:59:51;8.68;;;2.05;;
71639;SDS011;60912;48.968;10.124;2022-10-17T16:02:18;8.60;;;2.30;;
71639;SDS011;60912;48.968;10.124;2022-10-17T16:04:45;7.60;;;2.30;;
71639;SDS011;60912;48.968;10.124;2022-10-17T16:07:11;11.45;;;2.90;;
71639;SDS011;60912;48.968;10.124;2022-10-17T16:09:37;33.70;;;16.07;;
71639;SDS011;60912;48.968;10.124;2022-10-17T16:12:03;30.95;;;16.92;;
71639;SDS011;60912;48.968;10.124;2022-10-17T16:14:30;22.98;;;12.50;;
71639;SDS011;60912;48.968;10.124;2022-10-17T16:16:56;14.60;;;6.77;;
71639;SDS011;60912;48.968;10.124;2022-10-17T16:19:23;15.60;;;6.90;;
71639;SDS011;60912;48.968;10.124;2022-10-17T16:21:51;9.65;;;4.15;;
71639;SDS011;60912;48.968;10.124;2022-10-17T16:24:17;5.15;;;2.40;;
71639;SDS011;60912;48.968;10.124;2022-10-17T16:26:42;11.27;;;2.60;;
71639;SDS011;60912;48.968;10.124;2022-10-17T16:29:08;11.30;;;2.60;;
71639;SDS011;60912;48.968;10.124;2022-10-17T16:31:34;10.38;;;2.10;;
71639;SDS011;60912;48.968;10.124;2022-10-17T16:34:01;12.18;;;2.30;;
71639;SDS011;60912;48.968;10.124;2022-10-17T16:36:27;9.68;;;2.90;;
71639;SDS011;60912;48.968;10.124;2022-10-17T16:38:53;14.17;;;2.80;;
71639;SDS011;60912;48.968;10.124;2022-10-17T16:41:21;12.30;;;2.33;;
71639;SDS011;60912;48.968;10.124;2022-10-17T16:43:49;8.10;;;2.17;;
71639;SDS011;60912;48.968;10.124;2022-10-17T16:46:16;7.82;;;2.40;;
71639;SDS011;60912;48.968;10.124;2022-10-17T16:48:42;11.70;;;2.50;;
71639;SDS011;60912;48.968;10.124;2022-10-17T16:51:08;14.57;;;2.27;;
71639;SDS011;60912;48.968;10.124;2022-10-17T16:53:34;15.00;;;2.83;;
71639;SDS011;60912;48.968;10.124;2022-10-17T16:56:04;7.38;;;2.33;;
71639;SDS011;60912;48.968;10.124;2022-10-17T16:58:30;12.88;;;2.58;;